createdAt,value
2023-01-22T00:01:09.059Z,0.04
2023-01-22T00:03:37.146Z,0.01
2023-01-22T00:06:04.500Z,0.02
2023-01-22T00:08:31.203Z,-0.06
2023-01-22T00:10:57.949Z,-0.09
2023-01-22T00:13:26.609Z,-0.10
2023-01-22T00:15:54.053Z,-0.04
2023-01-22T00:18:20.819Z,-0.14
2023-01-22T00:20:52.218Z,-0.15
2023-01-22T00:23:19.608Z,-0.21
2023-01-22T00:25:46.641Z,-0.22
2023-01-22T00:28:13.509Z,-0.22
2023-01-22T00:30:40.274Z,-0.26
2023-01-22T00:33:08.841Z,-0.26
2023-01-22T00:35:35.293Z,-0.33
2023-01-22T00:38:01.921Z,-0.37
2023-01-22T00:40:28.741Z,-0.39
2023-01-22T00:42:55.645Z,-0.40
2023-01-22T00:45:22.336Z,-0.41
2023-01-22T00:47:49.061Z,-0.40
2023-01-22T00:50:16.013Z,-0.47
2023-01-22T00:52:42.806Z,-0.43
2023-01-22T00:55:09.761Z,-0.37
2023-01-22T00:57:36.428Z,-0.38
2023-01-22T01:00:04.351Z,-0.40
2023-01-22T01:02:32.065Z,-0.44
2023-01-22T01:04:58.689Z,-0.44
2023-01-22T01:07:25.242Z,-0.44
2023-01-22T01:09:51.664Z,-0.43
2023-01-22T01:12:18.380Z,-0.43
2023-01-22T01:14:45.205Z,-0.41
2023-01-22T01:17:11.916Z,-0.41
2023-01-22T01:19:39.383Z,-0.37
2023-01-22T01:22:08.047Z,-0.40
2023-01-22T01:24:36.392Z,-0.26
2023-01-22T01:27:02.968Z,-0.24
2023-01-22T01:29:29.590Z,-0.27
2023-01-22T01:31:57.731Z,-0.26
2023-01-22T01:34:24.351Z,-0.30
2023-01-22T01:36:50.714Z,-0.31
2023-01-22T01:39:17.530Z,-0.29
2023-01-22T01:41:44.142Z,-0.32
2023-01-22T01:44:19.686Z,-0.26
2023-01-22T01:47:15.256Z,-0.24
2023-01-22T01:49:50.729Z,-0.25
2023-01-22T01:52:17.702Z,-0.25
2023-01-22T01:54:49.849Z,-0.24
2023-01-22T01:57:22.035Z,-0.31
2023-01-22T01:59:51.355Z,-0.33
2023-01-22T02:02:20.405Z,-0.25
2023-01-22T02:04:49.113Z,-0.27
2023-01-22T02:07:15.704Z,-0.25
2023-01-22T02:09:42.323Z,-0.22
2023-01-22T02:12:09.601Z,-0.26
2023-01-22T02:14:39.577Z,-0.25
2023-01-22T02:17:11.606Z,-0.21
2023-01-22T02:19:39.668Z,-0.19
2023-01-22T02:22:17.358Z,-0.22
2023-01-22T02:24:44.347Z,-0.24
2023-01-22T02:27:11.399Z,-0.26
2023-01-22T02:29:38.442Z,-0.29
2023-01-22T02:32:05.023Z,-0.27
2023-01-22T02:34:32.005Z,-0.23
2023-01-22T02:36:59.138Z,-0.30
2023-01-22T02:39:25.697Z,-0.23
2023-01-22T02:41:52.509Z,-0.27
2023-01-22T02:44:19.280Z,-0.30
2023-01-22T02:46:46.077Z,-0.30
2023-01-22T02:49:12.655Z,-0.32
2023-01-22T02:51:39.206Z,-0.31
2023-01-22T02:54:05.897Z,-0.28
2023-01-22T02:56:33.675Z,-0.28
2023-01-22T02:59:01.981Z,-0.30
2023-01-22T03:01:28.542Z,-0.31
2023-01-22T03:04:12.615Z,-0.26
2023-01-22T03:06:42.138Z,-0.28
2023-01-22T03:09:11.318Z,-0.27
2023-01-22T03:11:39.207Z,-0.26
2023-01-22T03:14:24.402Z,-0.26
2023-01-22T03:17:09.700Z,-0.25
2023-01-22T03:19:54.712Z,-0.23
2023-01-22T03:22:21.715Z,-0.23
2023-01-22T03:24:52.563Z,-0.23
2023-01-22T03:27:21.364Z,-0.26
2023-01-22T03:29:48.079Z,-0.25
2023-01-22T03:32:15.655Z,-0.25
2023-01-22T03:34:42.368Z,-0.24
2023-01-22T03:37:12.669Z,-0.25
2023-01-22T03:39:40.369Z,-0.26
2023-01-22T03:42:07.414Z,-0.25
2023-01-22T03:44:33.950Z,-0.22
2023-01-22T03:47:00.522Z,-0.26
2023-01-22T03:49:27.101Z,-0.27
2023-01-22T03:51:53.581Z,-0.22
2023-01-22T03:54:20.116Z,-0.21
2023-01-22T03:56:46.794Z,-0.22
2023-01-22T03:59:13.685Z,-0.25
2023-01-22T04:01:40.296Z,-0.19
2023-01-22T04:04:06.999Z,-0.20
2023-01-22T04:06:33.623Z,-0.22
2023-01-22T04:09:00.323Z,-0.17
2023-01-22T04:11:27.197Z,-0.19
2023-01-22T04:13:55.597Z,-0.16
2023-01-22T04:16:22.481Z,-0.19
2023-01-22T04:18:49.475Z,-0.22
2023-01-22T04:21:16.051Z,-0.23
2023-01-22T04:23:42.799Z,-0.20
2023-01-22T04:26:09.818Z,-0.14
2023-01-22T04:28:36.636Z,-0.15
2023-01-22T04:31:04.599Z,-0.18
2023-01-22T04:33:32.015Z,-0.19
2023-01-22T04:35:58.528Z,-0.18
2023-01-22T04:38:25.443Z,-0.15
2023-01-22T04:40:52.074Z,-0.15
2023-01-22T04:43:18.803Z,-0.07
2023-01-22T04:45:45.406Z,-0.15
2023-01-22T04:48:12.577Z,-0.16
2023-01-22T04:50:39.560Z,-0.16
2023-01-22T04:53:06.089Z,-0.15
2023-01-22T04:55:32.728Z,-0.09
2023-01-22T04:58:00.661Z,-0.12
2023-01-22T05:00:29.969Z,-0.13
2023-01-22T05:03:00.806Z,-0.06
2023-01-22T05:05:28.594Z,-0.07
2023-01-22T05:07:55.319Z,-0.12
2023-01-22T05:10:22.475Z,-0.16
2023-01-22T05:12:49.526Z,-0.13
2023-01-22T05:15:24.153Z,-0.14
2023-01-22T05:17:52.906Z,-0.12
2023-01-22T05:20:20.431Z,-0.12
2023-01-22T05:22:48.446Z,-0.13
2023-01-22T05:25:15.253Z,-0.15
2023-01-22T05:27:42.180Z,-0.14
2023-01-22T05:30:10.031Z,-0.16
2023-01-22T05:32:37.491Z,-0.15
2023-01-22T05:35:05.247Z,-0.14
2023-01-22T05:37:32.681Z,-0.14
2023-01-22T05:39:59.161Z,-0.11
2023-01-22T05:42:25.742Z,-0.15
2023-01-22T05:44:52.146Z,-0.16
2023-01-22T05:47:18.674Z,-0.17
2023-01-22T05:49:45.302Z,-0.13
2023-01-22T05:52:11.904Z,-0.13
2023-01-22T05:54:39.633Z,-0.11
2023-01-22T05:57:06.703Z,-0.09
2023-01-22T05:59:33.358Z,-0.08
2023-01-22T06:02:00.349Z,-0.11
2023-01-22T06:04:27.087Z,-0.08
2023-01-22T06:06:54.619Z,-0.06
2023-01-22T06:09:21.227Z,-0.06
2023-01-22T06:11:48.084Z,0.03
2023-01-22T06:14:14.950Z,0.00
2023-01-22T06:16:41.737Z,-0.02
2023-01-22T06:19:08.750Z,0.03
2023-01-22T06:21:35.509Z,0.03
2023-01-22T06:24:02.573Z,0.01
2023-01-22T06:26:29.005Z,0.08
2023-01-22T06:28:55.570Z,0.00
2023-01-22T06:31:22.396Z,0.09
2023-01-22T06:33:49.414Z,0.14
2023-01-22T06:36:16.199Z,0.09
2023-01-22T06:38:42.879Z,0.10
2023-01-22T06:41:09.941Z,0.13
2023-01-22T06:43:39.903Z,0.09
2023-01-22T06:46:06.484Z,0.12
2023-01-22T06:48:33.079Z,0.06
2023-01-22T06:51:00.015Z,0.11
2023-01-22T06:53:27.456Z,0.11
2023-01-22T06:55:54.530Z,0.03
2023-01-22T06:58:21.444Z,0.00
2023-01-22T07:00:47.856Z,-0.03
2023-01-22T07:03:14.902Z,0.05
2023-01-22T07:05:41.407Z,-0.01
2023-01-22T07:08:07.986Z,0.00
2023-01-22T07:10:34.383Z,0.02
2023-01-22T07:13:01.500Z,0.07
2023-01-22T07:15:28.072Z,-0.01
2023-01-22T07:17:55.088Z,0.02
2023-01-22T07:20:23.099Z,0.04
2023-01-22T07:22:51.006Z,0.03
2023-01-22T07:25:19.314Z,0.00
2023-01-22T07:27:45.643Z,0.02
2023-01-22T07:30:12.703Z,0.06
2023-01-22T07:32:39.710Z,0.04
2023-01-22T07:35:06.552Z,0.01
2023-01-22T07:37:33.360Z,0.03
2023-01-22T07:39:59.915Z,0.09
2023-01-22T07:42:26.561Z,0.10
2023-01-22T07:44:53.131Z,0.11
2023-01-22T07:47:19.884Z,0.17
2023-01-22T07:49:47.705Z,0.12
2023-01-22T07:52:14.399Z,0.05
2023-01-22T07:54:41.057Z,0.07
2023-01-22T07:57:07.546Z,0.11
2023-01-22T07:59:34.805Z,0.10
2023-01-22T08:02:03.460Z,0.12
2023-01-22T08:04:30.260Z,0.10
2023-01-22T08:06:56.807Z,0.14
2023-01-22T08:09:25.508Z,0.14
2023-01-22T08:11:53.086Z,0.14
2023-01-22T08:14:20.023Z,0.18
2023-01-22T08:16:46.887Z,0.21
2023-01-22T08:19:13.753Z,0.16
2023-01-22T08:21:40.555Z,0.17
2023-01-22T08:24:08.164Z,0.23
2023-01-22T08:26:35.008Z,0.24
2023-01-22T08:29:04.882Z,0.26
2023-01-22T08:31:33.397Z,0.33
2023-01-22T08:34:00.533Z,0.36
2023-01-22T08:36:28.326Z,0.26
2023-01-22T08:38:55.410Z,0.36
2023-01-22T08:41:23.058Z,0.34
2023-01-22T08:43:51.922Z,0.33
2023-01-22T08:46:18.979Z,0.41
2023-01-22T08:48:46.115Z,0.35
2023-01-22T08:51:12.826Z,0.42
2023-01-22T08:53:39.345Z,0.43
2023-01-22T08:56:06.797Z,0.40
2023-01-22T08:58:33.376Z,0.48
2023-01-22T09:01:01.187Z,0.50
2023-01-22T09:03:28.970Z,0.50
2023-01-22T09:05:57.492Z,0.49
2023-01-22T09:08:24.689Z,0.63
2023-01-22T09:10:51.610Z,0.65
2023-01-22T09:13:17.993Z,0.60
2023-01-22T09:15:44.576Z,0.61
2023-01-22T09:18:11.053Z,0.77
2023-01-22T09:20:37.636Z,0.85
2023-01-22T09:23:04.586Z,0.65
2023-01-22T09:25:32.495Z,0.53
2023-01-22T09:28:00.566Z,0.60
2023-01-22T09:30:30.687Z,0.47
2023-01-22T09:32:57.499Z,0.69
2023-01-22T09:35:24.221Z,0.62
2023-01-22T09:37:52.223Z,0.71
2023-01-22T09:40:25.928Z,0.62
2023-01-22T09:43:04.631Z,0.64
2023-01-22T09:45:34.823Z,0.67
2023-01-22T09:48:07.744Z,0.71
2023-01-22T09:50:35.225Z,0.76
2023-01-22T09:53:03.859Z,0.80
2023-01-22T09:55:35.794Z,0.73
2023-01-22T09:58:09.313Z,0.76
2023-01-22T10:01:00.187Z,0.89
2023-01-22T10:03:34.584Z,0.94
2023-01-22T10:06:18.617Z,0.75
2023-01-22T10:08:55.747Z,0.80
2023-01-22T10:11:22.438Z,0.84
2023-01-22T10:13:53.415Z,0.84
2023-01-22T10:16:20.007Z,0.80
2023-01-22T10:18:49.925Z,0.82
2023-01-22T10:21:32.019Z,0.70
2023-01-22T10:23:59.057Z,0.68
2023-01-22T10:26:52.725Z,0.84
2023-01-22T10:29:34.368Z,0.77
2023-01-22T10:32:05.408Z,0.71
2023-01-22T10:34:36.775Z,0.82
2023-01-22T10:37:17.964Z,0.84
2023-01-22T10:39:47.519Z,0.84
2023-01-22T10:42:19.368Z,0.94
2023-01-22T10:44:46.316Z,0.88
2023-01-22T10:47:21.684Z,0.87
2023-01-22T10:50:16.244Z,0.95
2023-01-22T10:52:54.630Z,0.97
2023-01-22T10:55:24.868Z,0.95
2023-01-22T10:58:18.171Z,0.96
2023-01-22T11:00:56.950Z,1.02
2023-01-22T11:03:30.583Z,1.16
2023-01-22T11:06:06.515Z,1.10
2023-01-22T11:09:00.082Z,1.08
2023-01-22T11:11:37.759Z,1.12
2023-01-22T11:14:35.243Z,1.07
2023-01-22T11:17:04.867Z,1.02
2023-01-22T11:19:40.582Z,1.16
2023-01-22T11:22:21.982Z,1.12
2023-01-22T11:24:48.862Z,1.27
2023-01-22T11:27:41.802Z,1.22
2023-01-22T11:30:29.974Z,1.12
2023-01-22T11:33:37.094Z,1.08
2023-01-22T11:36:22.435Z,1.10
2023-01-22T11:38:54.555Z,1.31
2023-01-22T11:41:47.464Z,1.19
2023-01-22T11:44:28.987Z,1.11
2023-01-22T11:47:30.889Z,0.99
2023-01-22T11:50:08.686Z,0.95
2023-01-22T11:52:54.270Z,1.08
2023-01-22T11:55:39.536Z,1.00
2023-01-22T11:58:21.104Z,1.00
2023-01-22T12:01:01.231Z,1.06
2023-01-22T12:03:55.211Z,1.20
2023-01-22T12:06:34.845Z,1.09
2023-01-22T12:09:15.780Z,0.93
2023-01-22T12:12:00.978Z,0.93
2023-01-22T12:14:49.839Z,1.00
2023-01-22T12:17:38.055Z,1.14
2023-01-22T12:20:39.252Z,0.95
2023-01-22T12:23:21.106Z,1.00
2023-01-22T12:25:50.679Z,0.85
2023-01-22T12:28:24.477Z,0.94
2023-01-22T12:31:02.711Z,0.93
2023-01-22T12:33:31.841Z,1.03
2023-01-22T12:36:02.521Z,0.95
2023-01-22T12:38:35.259Z,0.94
2023-01-22T12:41:16.743Z,0.93
2023-01-22T12:43:51.025Z,0.90
2023-01-22T12:46:35.638Z,0.93
2023-01-22T12:49:10.888Z,1.00
2023-01-22T12:51:44.010Z,1.04
2023-01-22T12:54:22.967Z,1.07
2023-01-22T12:56:51.345Z,1.09
2023-01-22T12:59:35.551Z,1.06
2023-01-22T13:02:20.977Z,1.10
2023-01-22T13:04:47.744Z,1.25
2023-01-22T13:07:25.027Z,1.18
2023-01-22T13:10:24.770Z,1.22
2023-01-22T13:12:54.136Z,1.30
2023-01-22T13:15:37.147Z,1.27
2023-01-22T13:18:12.488Z,1.21
2023-01-22T13:20:56.530Z,1.21
2023-01-22T13:23:23.949Z,1.23
2023-01-22T13:25:55.664Z,1.21
2023-01-22T13:28:24.108Z,1.24
2023-01-22T13:31:05.957Z,1.28
2023-01-22T13:33:33.194Z,1.40
2023-01-22T13:36:08.921Z,1.35
2023-01-22T13:38:35.479Z,1.30
2023-01-22T13:41:08.053Z,1.34
2023-01-22T13:43:37.317Z,1.41
2023-01-22T13:46:04.650Z,1.41
2023-01-22T13:48:31.804Z,1.48
2023-01-22T13:51:04.324Z,1.49
2023-01-22T13:53:35.258Z,1.53
2023-01-22T13:56:02.466Z,1.47
2023-01-22T13:58:48.414Z,1.42
2023-01-22T14:01:33.392Z,1.55
2023-01-22T14:04:05.836Z,1.47
2023-01-22T14:06:49.295Z,1.38
2023-01-22T14:09:31.296Z,1.39
2023-01-22T14:11:59.450Z,1.45
2023-01-22T14:14:26.619Z,1.46
2023-01-22T14:16:53.446Z,1.51
2023-01-22T14:19:20.220Z,1.53
2023-01-22T14:21:46.630Z,1.51
2023-01-22T14:24:13.337Z,1.45
2023-01-22T14:26:40.244Z,1.50
2023-01-22T14:29:07.176Z,1.51
2023-01-22T14:31:33.972Z,1.53
2023-01-22T14:34:00.665Z,1.49
2023-01-22T14:36:27.136Z,1.57
2023-01-22T14:38:55.275Z,1.61
2023-01-22T14:41:21.788Z,1.65
2023-01-22T14:43:48.879Z,1.63
2023-01-22T14:46:15.559Z,1.60
2023-01-22T14:48:42.363Z,1.50
2023-01-22T14:51:11.272Z,1.55
2023-01-22T14:53:38.891Z,1.49
2023-01-22T14:56:05.941Z,1.51
2023-01-22T14:58:33.342Z,1.49
2023-01-22T15:01:00.402Z,1.41
2023-01-22T15:03:29.659Z,1.46
2023-01-22T15:05:56.659Z,1.39
2023-01-22T15:08:23.572Z,1.37
2023-01-22T15:10:50.116Z,1.40
2023-01-22T15:13:16.705Z,1.42
2023-01-22T15:15:43.226Z,1.41
2023-01-22T15:18:10.185Z,1.41
2023-01-22T15:20:37.023Z,1.43
2023-01-22T15:23:03.603Z,1.43
2023-01-22T15:25:32.188Z,1.41
2023-01-22T15:27:59.256Z,1.47
2023-01-22T15:30:26.289Z,1.38
2023-01-22T15:32:52.970Z,1.34
2023-01-22T15:35:19.600Z,1.43
2023-01-22T15:37:48.313Z,1.43
2023-01-22T15:40:15.514Z,1.36
2023-01-22T15:42:41.993Z,1.42
2023-01-22T15:45:09.316Z,1.45
2023-01-22T15:47:36.006Z,1.55
2023-01-22T15:50:03.807Z,1.50
2023-01-22T15:52:30.744Z,1.39
2023-01-22T15:54:57.490Z,1.35
2023-01-22T15:57:24.042Z,1.37
2023-01-22T15:59:51.518Z,1.41
2023-01-22T16:02:18.370Z,1.38
2023-01-22T16:04:44.919Z,1.32
2023-01-22T16:07:11.302Z,1.31
2023-01-22T16:09:38.717Z,1.38
2023-01-22T16:12:05.820Z,1.29
2023-01-22T16:14:32.359Z,1.26
2023-01-22T16:17:00.424Z,1.35
2023-01-22T16:19:26.897Z,1.35
2023-01-22T16:21:53.548Z,1.32
2023-01-22T16:24:19.973Z,1.29
2023-01-22T16:26:46.453Z,1.27
2023-01-22T16:29:13.083Z,1.23
2023-01-22T16:31:40.588Z,1.24
2023-01-22T16:34:10.764Z,1.20
2023-01-22T16:36:37.671Z,1.22
2023-01-22T16:39:05.374Z,1.20
2023-01-22T16:41:34.168Z,1.23
2023-01-22T16:44:12.860Z,1.23
2023-01-22T16:46:43.185Z,1.16
2023-01-22T16:49:14.917Z,1.22
2023-01-22T16:51:49.463Z,1.20
2023-01-22T16:54:28.796Z,1.21
2023-01-22T16:57:02.809Z,1.21
2023-01-22T16:59:31.603Z,1.18
2023-01-22T17:02:00.185Z,1.18
2023-01-22T17:04:28.201Z,1.21
2023-01-22T17:06:57.251Z,1.22
2023-01-22T17:09:31.160Z,1.11
2023-01-22T17:12:00.746Z,1.15
2023-01-22T17:14:30.642Z,1.17
2023-01-22T17:16:58.223Z,1.17
2023-01-22T17:19:25.295Z,1.12
2023-01-22T17:21:58.763Z,1.15
2023-01-22T17:24:26.814Z,1.16
2023-01-22T17:26:54.244Z,1.17
2023-01-22T17:29:22.097Z,1.12
2023-01-22T17:31:49.038Z,1.14
2023-01-22T17:34:16.513Z,1.37
2023-01-22T17:36:44.266Z,1.31
2023-01-22T17:39:15.833Z,1.28
2023-01-22T17:41:42.956Z,1.33
2023-01-22T17:44:10.151Z,1.27
2023-01-22T17:46:36.870Z,1.25
2023-01-22T17:49:04.720Z,1.17
2023-01-22T17:51:34.594Z,1.13
2023-01-22T17:54:03.616Z,1.13
2023-01-22T17:56:42.867Z,1.09
2023-01-22T17:59:10.387Z,1.10
2023-01-22T18:01:38.705Z,1.10
2023-01-22T18:04:08.739Z,1.10
2023-01-22T18:06:36.527Z,1.12
2023-01-22T18:09:05.519Z,1.13
2023-01-22T18:11:33.085Z,1.16
2023-01-22T18:14:03.063Z,1.16
2023-01-22T18:16:32.604Z,1.17
2023-01-22T18:19:01.606Z,1.18
2023-01-22T18:21:29.112Z,1.20
2023-01-22T18:23:55.973Z,1.19
2023-01-22T18:26:23.652Z,1.18
2023-01-22T18:28:51.509Z,1.20
2023-01-22T18:31:22.120Z,1.17
2023-01-22T18:33:49.283Z,1.19
2023-01-22T18:36:19.754Z,1.21
2023-01-22T18:38:46.689Z,1.19
2023-01-22T18:41:15.956Z,1.20
2023-01-22T18:43:46.289Z,1.18
2023-01-22T18:46:13.870Z,1.20
2023-01-22T18:48:42.170Z,1.21
2023-01-22T18:51:13.097Z,1.19
2023-01-22T18:53:41.421Z,1.15
2023-01-22T18:56:09.500Z,1.14
2023-01-22T18:58:36.234Z,1.19
2023-01-22T19:01:12.896Z,1.23
2023-01-22T19:03:41.886Z,1.21
2023-01-22T19:06:15.793Z,1.23
2023-01-22T19:09:00.488Z,1.23
2023-01-22T19:11:27.391Z,1.19
2023-01-22T19:13:55.603Z,1.22
2023-01-22T19:16:23.972Z,1.25
2023-01-22T19:18:59.756Z,1.15
2023-01-22T19:21:27.433Z,1.15
2023-01-22T19:23:57.871Z,1.19
2023-01-22T19:26:31.060Z,1.20
2023-01-22T19:29:03.763Z,1.21
2023-01-22T19:31:39.132Z,1.19
2023-01-22T19:34:08.853Z,1.23
2023-01-22T19:36:38.772Z,1.21
2023-01-22T19:39:11.402Z,1.22
2023-01-22T19:41:39.844Z,1.19
2023-01-22T19:44:06.531Z,1.15
2023-01-22T19:46:34.435Z,1.11
2023-01-22T19:49:01.014Z,1.12
2023-01-22T19:51:30.415Z,1.15
2023-01-22T19:53:59.588Z,1.16
2023-01-22T19:56:29.518Z,1.24
2023-01-22T19:59:03.005Z,1.20
2023-01-22T20:01:29.576Z,1.23
2023-01-22T20:03:56.881Z,1.28
2023-01-22T20:06:25.135Z,1.22
2023-01-22T20:08:52.657Z,1.19
2023-01-22T20:11:19.370Z,1.20
2023-01-22T20:13:47.427Z,1.15
2023-01-22T20:16:19.292Z,1.09
2023-01-22T20:18:46.891Z,1.15
2023-01-22T20:21:14.433Z,1.14
2023-01-22T20:23:41.632Z,1.07
2023-01-22T20:26:09.628Z,1.03
2023-01-22T20:28:37.058Z,1.03
2023-01-22T20:31:05.011Z,1.03
2023-01-22T20:33:31.998Z,1.10
2023-01-22T20:36:04.377Z,1.17
2023-01-22T20:38:31.139Z,1.10
2023-01-22T20:41:04.606Z,1.06
2023-01-22T20:43:32.242Z,1.13
2023-01-22T20:46:01.561Z,1.09
2023-01-22T20:48:30.074Z,1.10
2023-01-22T20:50:57.398Z,1.14
2023-01-22T20:53:25.299Z,1.09
2023-01-22T20:55:59.345Z,1.06
2023-01-22T20:58:26.413Z,1.00
2023-01-22T21:00:53.275Z,1.04
2023-01-22T21:03:21.637Z,1.05
2023-01-22T21:05:48.138Z,1.13
2023-01-22T21:08:15.068Z,1.07
2023-01-22T21:10:41.750Z,1.08
2023-01-22T21:13:08.669Z,1.03
2023-01-22T21:15:36.671Z,1.03
2023-01-22T21:18:03.733Z,1.09
2023-01-22T21:20:30.220Z,1.08
2023-01-22T21:22:56.909Z,1.02
2023-01-22T21:25:23.617Z,1.02
2023-01-22T21:27:51.194Z,1.07
2023-01-22T21:30:18.260Z,1.01
2023-01-22T21:32:50.323Z,0.96
2023-01-22T21:35:16.963Z,1.01
2023-01-22T21:37:43.337Z,0.98
2023-01-22T21:40:13.190Z,0.99
2023-01-22T21:42:58.487Z,0.91
2023-01-22T21:45:44.257Z,0.93
2023-01-22T21:48:10.732Z,0.92
2023-01-22T21:50:41.471Z,0.94
2023-01-22T21:53:10.103Z,1.06
2023-01-22T21:55:36.732Z,1.06
2023-01-22T21:58:03.986Z,1.07
2023-01-22T22:00:30.746Z,1.09
2023-01-22T22:02:58.095Z,1.06
2023-01-22T22:05:24.731Z,1.06
2023-01-22T22:07:51.689Z,1.08
2023-01-22T22:10:20.086Z,1.08
2023-01-22T22:12:47.679Z,1.12
2023-01-22T22:15:14.359Z,1.07
2023-01-22T22:17:41.184Z,1.07
2023-01-22T22:20:09.850Z,1.06
2023-01-22T22:22:36.522Z,1.01
2023-01-22T22:25:03.522Z,1.04
2023-01-22T22:27:30.144Z,1.02
2023-01-22T22:29:56.647Z,1.03
2023-01-22T22:32:23.176Z,1.05
2023-01-22T22:34:49.748Z,0.99
2023-01-22T22:37:17.254Z,0.98
2023-01-22T22:39:43.961Z,0.96
2023-01-22T22:42:10.732Z,1.05
2023-01-22T22:44:40.070Z,1.07
2023-01-22T22:47:06.727Z,1.08
2023-01-22T22:49:33.407Z,1.08
2023-01-22T22:52:01.426Z,1.02
2023-01-22T22:54:27.961Z,1.01
2023-01-22T22:56:54.544Z,1.02
2023-01-22T22:59:21.214Z,0.96
2023-01-22T23:01:48.982Z,0.98
2023-01-22T23:04:16.435Z,1.00
2023-01-22T23:06:45.241Z,1.01
2023-01-22T23:09:14.966Z,1.00
2023-01-22T23:11:41.635Z,0.96
2023-01-22T23:14:08.684Z,0.98
2023-01-22T23:16:38.938Z,1.08
2023-01-22T23:19:14.060Z,1.03
2023-01-22T23:21:41.578Z,1.03
2023-01-22T23:24:10.700Z,0.99
2023-01-22T23:26:37.867Z,1.07
2023-01-22T23:29:07.275Z,1.03
2023-01-22T23:31:36.137Z,0.99
2023-01-22T23:34:04.748Z,1.00
2023-01-22T23:36:32.610Z,1.02
2023-01-22T23:38:59.527Z,0.96
2023-01-22T23:41:27.051Z,0.94
2023-01-22T23:43:53.721Z,0.93
2023-01-22T23:46:26.337Z,0.93
2023-01-22T23:48:54.877Z,0.96
2023-01-22T23:51:22.141Z,0.94
2023-01-22T23:53:51.632Z,0.92
2023-01-22T23:56:20.913Z,0.88
2023-01-22T23:58:48.925Z,0.88
